Time;durP1;ratioP1;P1;durP2;ratioP2;P2;SDS_P1;SDS_P2;PMS_P1;PMS_P2;Temp;Humidity;BMP_temperature;BMP_pressure;BME280_temperature;BME280_humidity;BME280_pressure;Samples;Min_cycle;Max_cycle;Signal;HPM_P1;HPM_P2
2022/09/23 00:00:47;;;;;;;9.37;5.73;;;;;;;11.11;81.43;101598.72;5265469;28;20037;-79
2022/09/23 00:03:20;;;;;;;8.77;5.72;;;;;;;11.15;81.44;101587.41;5265263;28;20036;-78
2022/09/23 00:06:03;;;;;;;9.20;5.88;;;;;;;11.13;81.77;101592.63;5265624;28;20140;-79
2022/09/23 00:08:35;;;;;;;8.60;5.28;;;;;;;10.98;81.70;101587.44;5265244;28;20021;-78
2022/09/23 00:11:15;;;;;;;8.17;5.80;;;;;;;11.11;81.89;101591.75;5264049;28;20147;-79
2022/09/23 00:13:49;;;;;;;10.63;5.95;;;;;;;11.04;81.85;101582.19;5264980;28;20044;-79
2022/09/23 00:16:29;;;;;;;7.82;5.75;;;;;;;10.97;82.13;101580.47;5263774;28;20065;-79
2022/09/23 00:19:01;;;;;;;8.45;5.80;;;;;;;10.98;82.71;101587.44;5265290;28;20385;-79
2022/09/23 00:21:33;;;;;;;;;;;;;;;11.16;80.42;101585.66;5264170;28;20162;-79
2022/09/23 00:24:04;;;;;;;12.38;5.82;;;;;;;10.99;81.68;101586.56;5264531;28;19919;-79
2022/09/23 00:26:35;;;;;;;11.57;5.70;;;;;;;10.87;81.89;101581.38;5264895;28;20040;-80
2022/09/23 00:29:07;;;;;;;8.17;5.70;;;;;;;10.90;82.11;101582.22;5264474;28;20159;-79
2022/09/23 00:31:38;;;;;;;9.87;5.20;;;;;;;10.83;82.46;101577.88;5264295;28;20526;-79
2022/09/23 00:34:10;;;;;;;9.30;6.67;;;;;;;10.97;82.23;101575.25;5265116;28;20044;-79
2022/09/23 00:36:42;;;;;;;7.93;5.33;;;;;;;10.71;82.50;101568.34;5265325;28;20475;-77
2022/09/23 00:39:13;;;;;;;12.05;7.45;;;;;;;10.88;82.99;101564.84;5264228;28;20107;-77
2022/09/23 00:41:44;;;;;;;8.47;6.00;;;;;;;10.82;82.94;101563.13;5264346;28;20040;-77
2022/09/23 00:44:51;;;;;;;8.50;6.23;;;;;;;10.85;82.93;101568.34;5263431;28;20065;-77
2022/09/23 00:47:47;;;;;;;7.82;5.70;;;;;;;10.87;82.59;101565.72;5265197;28;20063;-79
2022/09/23 00:50:29;;;;;;;10.02;6.30;;;;;;;10.88;82.77;101565.72;5266474;28;20348;-78
2022/09/23 00:53:05;;;;;;;8.48;6.65;;;;;;;10.81;82.64;101557.91;5280169;28;20067;-78
2022/09/23 00:55:41;;;;;;;10.93;6.82;;;;;;;10.91;82.37;101562.22;5268622;28;20051;-79
2022/09/23 00:58:17;;;;;;;14.55;7.68;;;;;;;10.84;82.48;101561.38;5264176;28;20083;-78
2022/09/23 01:00:49;;;;;;;9.77;7.13;;;;;;;10.82;82.93;101563.13;5264043;28;20098;-78
2022/09/23 01:03:21;;;;;;;10.27;7.73;;;;;;;10.75;82.20;101556.16;5263647;28;20033;-80
2022/09/23 01:05:54;;;;;;;9.90;6.75;;;;;;;10.79;82.32;101560.50;5263661;28;20107;-79
2022/09/23 01:08:26;;;;;;;12.02;7.50;;;;;;;10.74;82.53;101559.66;5263701;28;20048;-79
2022/09/23 01:11:13;;;;;;;13.68;7.18;;;;;;;10.71;82.54;101557.06;5264244;28;20491;-79
2022/09/23 01:14:03;;;;;;;11.30;7.90;;;;;;;10.71;82.63;101554.44;5263154;28;20150;-79
2022/09/23 01:16:39;;;;;;;11.35;7.72;;;;;;;10.67;83.11;101548.34;5264083;28;20037;-80
2022/09/23 01:19:13;;;;;;;10.55;7.90;;;;;;;10.79;82.94;101551.81;5263987;28;20039;-79
2022/09/23 01:22:04;;;;;;;12.65;7.47;;;;;;;10.71;82.99;101551.84;5263271;28;20064;-77
2022/09/23 01:24:45;;;;;;;12.65;8.38;;;;;;;10.65;82.78;101550.09;5263485;28;20040;-80
2022/09/23 01:27:36;;;;;;;11.00;8.00;;;;;;;10.60;82.77;101548.38;5264145;28;20075;-80
2022/09/23 01:30:11;;;;;;;11.68;8.82;;;;;;;10.56;83.27;101548.38;5222746;28;20131;-79
2022/09/23 01:32:55;;;;;;;9.88;7.55;;;;;;;10.40;83.44;101546.63;5263063;28;20039;-78
2022/09/23 01:35:41;;;;;;;9.63;8.32;;;;;;;10.38;84.23;101544.03;5264025;28;20113;-79
2022/09/23 01:38:44;;;;;;;12.48;8.00;;;;;;;10.35;84.15;101543.13;5263671;28;20472;-78
2022/09/23 01:41:44;;;;;;;10.38;7.85;;;;;;;10.23;84.49;101541.38;5263718;28;20106;-79
2022/09/23 01:44:30;;;;;;;13.02;8.95;;;;;;;10.26;84.95;101538.78;5263507;28;20045;-79
2022/09/23 01:47:17;;;;;;;13.35;7.85;;;;;;;10.29;85.00;101541.38;5267713;28;20057;-79
2022/09/23 01:50:54;;;;;;;11.57;8.18;;;;;;;10.23;84.41;101533.56;5280547;28;20029;-78
2022/09/23 01:53:01;;;;;;;10.13;7.65;;;;;;;10.15;84.99;101536.16;5263423;28;20041;-77
2022/09/23 01:55:37;;;;;;;10.73;8.20;;;;;;;10.20;84.90;101544.84;5262819;28;20413;-78
2022/09/23 01:58:19;;;;;;;9.80;8.25;;;;;;;10.24;85.17;101543.13;5263347;28;20464;-78
2022/09/23 02:01:03;;;;;;;11.80;7.93;;;;;;;10.30;85.06;101545.69;5263658;28;20021;-78
2022/09/23 02:03:48;;;;;;;10.10;8.02;;;;;;;10.26;85.50;101538.78;5263245;28;20155;-78
2022/09/23 02:06:24;;;;;;;12.43;8.15;;;;;;;10.26;85.42;101530.09;5263535;28;20029;-78
2022/09/23 02:09:01;;;;;;;13.40;8.55;;;;;;;10.26;85.67;101530.09;5262918;28;20040;-78
2022/09/23 02:11:37;;;;;;;10.57;8.20;;;;;;;10.26;85.28;101522.28;5262898;28;20131;-79
2022/09/23 02:14:20;;;;;;;11.23;8.52;;;;;;;10.30;85.66;101530.06;5263804;28;20077;-79
2022/09/23 02:16:54;;;;;;;;;;;;;;;10.32;83.87;101525.78;5263554;28;20072;-79
2022/09/23 02:19:49;;;;;;;9.18;7.90;;;;;;;10.31;85.23;101526.59;5262677;28;19923;-78
2022/09/23 02:22:41;;;;;;;17.38;8.38;;;;;;;10.15;85.68;101517.06;5263185;28;20112;-78
2022/09/23 02:25:16;;;;;;;15.93;8.82;;;;;;;10.23;85.59;101518.78;5263326;28;20028;-78
2022/09/23 02:28:01;;;;;;;11.35;7.90;;;;;;;10.07;86.06;101517.03;5262881;28;20033;-79
2022/09/23 02:30:43;;;;;;;12.75;8.23;;;;;;;10.18;85.97;101520.53;5263260;28;20029;-78
2022/09/23 02:33:28;;;;;;;11.32;8.00;;;;;;;10.19;85.71;101518.78;5262862;28;20444;-78
2022/09/23 02:36:11;;;;;;;12.50;8.77;;;;;;;10.08;85.98;101510.97;5262910;28;20025;-79
2022/09/23 02:38:51;;;;;;;12.25;8.35;;;;;;;10.14;85.57;101510.97;5262853;28;20345;-78
2022/09/23 02:42:02;;;;;;;12.73;8.38;;;;;;;10.08;85.50;101499.66;5262627;28;20079;-79
2022/09/23 02:44:35;;;;;;;12.50;8.63;;;;;;;10.05;86.06;101492.72;5178057;28;20094;-78
2022/09/23 02:47:07;;;;;;;11.65;9.18;;;;;;;10.00;86.03;101499.69;5252301;28;20045;-80
2022/09/23 02:49:39;;;;;;;10.77;8.73;;;;;;;9.99;85.80;101495.31;5262938;28;20032;-79
2022/09/23 02:52:12;;;;;;;10.63;8.40;;;;;;;9.90;85.96;101487.50;5262640;28;20112;-79
2022/09/23 02:54:44;;;;;;;9.68;8.63;;;;;;;9.88;86.46;101489.25;5262368;28;20479;-78
2022/09/23 02:57:15;;;;;;;15.33;7.80;;;;;;;9.84;86.44;101483.16;5262251;28;20095;-77
2022/09/23 02:59:47;;;;;;;9.03;7.97;;;;;;;9.83;86.41;101487.47;5262334;28;20392;-78
2022/09/23 03:02:33;;;;;;;12.63;7.93;;;;;;;9.77;86.16;101486.59;5262485;28;20033;-78
2022/09/23 03:05:30;;;;;;;11.50;7.72;;;;;;;9.73;86.55;101477.94;5262529;28;20033;-78
2022/09/23 03:08:11;;;;;;;10.20;8.05;;;;;;;9.70;86.42;101474.47;5266107;28;20029;-78
2022/09/23 03:10:59;;;;;;;18.08;8.73;;;;;;;9.66;87.02;101479.66;5266543;28;20032;-79
2022/09/23 03:14:02;;;;;;;12.23;8.50;;;;;;;9.61;86.88;101472.69;5266681;28;20454;-77
2022/09/23 03:16:49;;;;;;;12.23;8.82;;;;;;;9.66;86.89;101474.44;5266587;28;20037;-77
2022/09/23 03:19:41;;;;;;;10.18;7.72;;;;;;;9.62;87.13;101477.03;5266055;28;20060;-76
2022/09/23 03:22:43;;;;;;;10.32;7.85;;;;;;;9.54;86.85;101466.59;5266725;28;20352;-78
2022/09/23 03:25:20;;;;;;;12.83;8.70;;;;;;;9.52;87.45;101465.75;5264980;28;20041;-78
2022/09/23 03:27:56;;;;;;;10.85;8.65;;;;;;;9.54;87.62;101468.34;5265960;28;20485;-79
2022/09/23 03:30:30;;;;;;;14.20;8.18;;;;;;;9.45;87.48;101461.38;5265933;28;20108;-78
2022/09/23 03:33:08;;;;;;;10.90;7.47;;;;;;;9.40;87.73;101466.59;5265652;28;20025;-78
2022/09/23 03:38:49;;;;;;;9.18;7.82;;;;;;;9.26;87.64;101460.47;5270861;28;20041;-78
2022/09/23 03:41:28;;;;;;;9.68;7.90;;;;;;;9.35;87.58;101475.22;5287820;28;20013;-78
2022/09/23 03:44:01;;;;;;;9.80;7.53;;;;;;;9.34;87.50;101468.28;5277495;28;20025;-79
2022/09/23 03:46:34;;;;;;;10.30;7.38;;;;;;;9.33;87.48;101470.00;5266471;28;20068;-78
2022/09/23 03:49:17;;;;;;;12.13;7.10;;;;;;;9.17;87.94;101461.28;5265813;28;20087;-78
2022/09/23 03:51:48;;;;;;;;;;;;;;;9.26;86.45;101469.13;5265755;28;20044;-78
2022/09/23 03:54:19;;;;;;;13.07;7.88;;;;;;;9.08;87.34;101462.13;5265381;28;19917;-78
2022/09/23 03:56:51;;;;;;;9.13;7.20;;;;;;;9.11;87.71;101453.44;5265288;28;20036;-79
2022/09/23 03:59:23;;;;;;;10.73;7.90;;;;;;;9.18;87.89;101459.56;5264042;28;20476;-79
2022/09/23 04:01:56;;;;;;;15.25;7.65;;;;;;;9.18;87.66;101452.63;5265251;28;20036;-79
2022/09/23 04:04:28;;;;;;;9.98;7.55;;;;;;;9.11;88.05;101461.25;5263892;28;20080;-78
2022/09/23 04:07:00;;;;;;;12.52;7.32;;;;;;;9.08;88.19;101459.53;5264864;28;20032;-79
2022/09/23 04:09:32;;;;;;;8.75;6.88;;;;;;;8.98;88.08;101457.72;5266747;28;20377;-78
2022/09/23 04:12:04;;;;;;;10.80;7.60;;;;;;;8.99;88.51;101454.28;5265905;28;20520;-78
2022/09/23 04:14:36;;;;;;;10.50;7.25;;;;;;;8.97;88.72;101450.81;5264647;28;20131;-77
2022/09/23 04:17:07;;;;;;;9.07;7.03;;;;;;;8.92;88.73;101453.38;5264357;28;20121;-78
2022/09/23 04:19:39;;;;;;;11.30;7.60;;;;;;;8.92;89.05;101453.38;5264503;28;20028;-78
2022/09/23 04:22:10;;;;;;;10.43;6.90;;;;;;;8.90;88.67;101452.53;5264380;28;20396;-78
2022/09/23 04:24:42;;;;;;;10.63;7.10;;;;;;;8.98;89.11;101452.53;5265052;28;20029;-77
2022/09/23 04:27:13;;;;;;;10.57;7.17;;;;;;;8.92;89.12;101457.72;5264715;28;20061;-78
2022/09/23 04:29:45;;;;;;;10.53;7.13;;;;;;;8.87;89.21;101456.81;5264410;28;20078;-79
2022/09/23 04:32:16;;;;;;;12.60;8.03;;;;;;;8.67;88.57;101448.91;5265211;28;20029;-79
2022/09/23 04:34:47;;;;;;;12.77;7.30;;;;;;;8.82;88.89;101461.13;5265980;28;20037;-79
2022/09/23 04:37:18;;;;;;;11.40;7.30;;;;;;;8.81;89.27;101449.00;5278931;28;20380;-77
2022/09/23 04:39:50;;;;;;;9.90;7.47;;;;;;;8.78;89.48;101449.00;5271481;28;20098;-78
2022/09/23 04:42:21;;;;;;;10.50;7.50;;;;;;;8.84;89.32;101449.88;5264552;28;20167;-78
2022/09/23 04:44:52;;;;;;;10.97;7.20;;;;;;;8.70;88.97;101443.75;5264063;28;20518;-79
2022/09/23 04:47:24;;;;;;;9.73;7.87;;;;;;;8.83;89.95;101447.28;5264330;28;20033;-79
2022/09/23 04:49:56;;;;;;;10.23;7.40;;;;;;;8.82;89.46;101450.72;5264966;28;20029;-78
2022/09/23 04:52:30;;;;;;;13.03;7.67;;;;;;;8.83;89.67;101453.34;5264159;28;20025;-79
2022/09/23 04:55:01;;;;;;;10.13;7.22;;;;;;;8.72;89.83;101442.88;5264211;28;20032;-78
2022/09/23 04:57:33;;;;;;;10.40;7.50;;;;;;;8.72;90.35;101440.28;5262801;28;20060;-79
2022/09/23 05:00:05;;;;;;;9.90;7.30;;;;;;;8.68;90.03;101438.53;5264462;28;20098;-78
2022/09/23 05:02:44;;;;;;;11.77;6.82;;;;;;;8.71;90.75;101428.16;5264462;28;20703;-79
2022/09/23 05:05:21;;;;;;;10.05;7.72;;;;;;;8.76;90.96;101430.78;5264228;28;20123;-79
2022/09/23 05:07:54;;;;;;;11.73;7.57;;;;;;;8.70;91.11;101435.94;5263887;28;20094;-79
2022/09/23 05:10:25;;;;;;;11.57;7.18;;;;;;;8.63;91.00;101432.44;5264051;28;20476;-80
2022/09/23 05:12:58;;;;;;;12.93;7.73;;;;;;;8.77;90.92;101432.50;5263486;28;20067;-79
2022/09/23 05:15:29;;;;;;;10.35;7.40;;;;;;;8.80;90.93;101436.84;5263713;28;20028;-79
2022/09/23 05:18:01;;;;;;;10.33;6.67;;;;;;;8.78;91.07;101439.44;5263788;28;20029;-79
2022/09/23 05:20:32;;;;;;;10.40;7.05;;;;;;;8.76;90.60;101439.44;5263626;28;20052;-79
2022/09/23 05:23:04;;;;;;;12.43;7.50;;;;;;;8.66;90.63;101441.97;5263480;28;20076;-79
2022/09/23 05:25:35;;;;;;;9.93;7.00;;;;;;;8.78;90.05;101443.78;5263656;28;20120;-79
2022/09/23 05:28:07;;;;;;;11.53;7.23;;;;;;;8.76;90.03;101443.78;5263379;28;20115;-80
2022/09/23 05:30:38;;;;;;;9.03;7.17;;;;;;;8.79;90.44;101448.09;5263618;28;20052;-78
2022/09/23 05:33:10;;;;;;;9.77;7.10;;;;;;;8.69;90.30;101450.66;5274962;28;20029;-79
2022/09/23 05:35:47;;;;;;;7.27;6.37;;;;;;;8.73;90.43;101451.56;5272794;28;20067;-78
2022/09/23 05:38:18;;;;;;;11.18;6.70;;;;;;;8.86;90.84;101453.34;5262984;28;20392;-75
2022/09/23 05:40:57;;;;;;;8.93;6.10;;;;;;;8.86;90.78;101457.69;5261654;28;20037;-78
2022/09/23 05:43:29;;;;;;;10.35;6.50;;;;;;;8.96;90.44;101459.47;5262956;28;20025;-78
2022/09/23 05:46:06;;;;;;;15.03;6.93;;;;;;;8.93;89.58;101459.44;5262957;28;20480;-79
2022/09/23 05:48:39;;;;;;;13.93;7.35;;;;;;;9.00;89.13;101453.44;5262613;28;20068;-78
2022/09/23 05:51:14;;;;;;;9.00;6.53;;;;;;;8.99;89.62;101451.69;5262358;28;20037;-78
2022/09/23 05:53:46;;;;;;;10.18;7.47;;;;;;;9.07;89.62;101449.13;5262825;28;20040;-79
2022/09/23 05:56:23;;;;;;;12.57;7.65;;;;;;;9.06;89.89;101457.78;5262419;28;20039;-78
2022/09/23 05:58:56;;;;;;;18.75;7.60;;;;;;;9.04;89.35;101464.72;5263560;28;20041;-79
2022/09/23 06:01:32;;;;;;;14.00;7.30;;;;;;;9.06;89.14;101458.63;5262813;28;20055;-80
2022/09/23 06:04:05;;;;;;;13.50;6.82;;;;;;;9.18;89.20;101463.03;5262876;28;20035;-80
2022/09/23 06:06:40;;;;;;;10.07;7.35;;;;;;;9.11;88.54;101461.25;5263089;28;20032;-81
2022/09/23 06:09:13;;;;;;;9.73;7.10;;;;;;;9.19;88.06;101462.16;5262810;28;20025;-80
2022/09/23 06:11:45;;;;;;;9.05;6.80;;;;;;;9.22;86.80;101461.31;5262535;28;20041;-80
2022/09/23 06:14:17;;;;;;;16.63;8.77;;;;;;;9.29;86.93;101452.69;5262222;28;20103;-79
2022/09/23 06:16:48;;;;;;;11.85;6.90;;;;;;;9.30;86.54;101451.78;5262920;28;20033;-80
2022/09/23 06:19:20;;;;;;;12.30;7.50;;;;;;;9.31;87.04;101451.78;5262658;28;20110;-77
2022/09/23 06:21:51;;;;;;;13.47;7.93;;;;;;;9.44;86.93;101447.50;5262752;28;20032;-76
2022/09/23 06:24:23;;;;;;;11.77;7.07;;;;;;;9.46;87.02;101442.28;5262263;28;20040;-76
2022/09/23 06:26:54;;;;;;;13.77;7.63;;;;;;;9.51;86.36;101442.31;5262368;28;20029;-76
2022/09/23 06:29:25;;;;;;;14.27;8.53;;;;;;;9.56;86.43;101443.19;5262472;28;20025;-76
2022/09/23 06:31:58;;;;;;;13.87;7.87;;;;;;;9.64;86.63;101450.16;5262242;28;20032;-75
2022/09/23 06:34:29;;;;;;;14.10;7.60;;;;;;;9.64;85.70;101441.47;5261963;28;20025;-77
2022/09/23 06:37:01;;;;;;;14.73;7.47;;;;;;;9.70;86.21;101449.28;5262232;28;20040;-77
2022/09/23 06:39:32;;;;;;;9.33;6.83;;;;;;;9.71;85.69;101438.00;5262188;28;20033;-78
2022/09/23 06:42:05;;;;;;;11.67;7.83;;;;;;;9.82;85.65;101438.00;5265270;28;20049;-79
2022/09/23 06:44:36;;;;;;;16.17;6.97;;;;;;;9.82;85.53;101441.50;5265774;28;20029;-81
2022/09/23 06:47:08;;;;;;;10.97;7.13;;;;;;;9.84;84.44;101450.16;5268332;28;20090;-81
2022/09/23 06:49:39;;;;;;;15.13;8.37;;;;;;;9.85;84.74;101438.00;5265708;28;20037;-81
2022/09/23 06:52:10;;;;;;;9.33;6.93;;;;;;;9.99;84.39;101448.44;5267192;28;20491;-81
2022/09/23 06:54:42;;;;;;;12.07;7.40;;;;;;;10.10;85.79;101449.31;5267634;28;20033;-82
2022/09/23 06:57:13;;;;;;;11.17;7.07;;;;;;;10.15;85.38;101446.72;5267325;28;20029;-81
2022/09/23 06:59:45;;;;;;;8.83;6.40;;;;;;;10.24;85.77;101444.09;5266301;28;20021;-81
2022/09/23 07:02:16;;;;;;;14.37;7.20;;;;;;;10.31;83.29;101447.56;5265705;28;20108;-81
2022/09/23 07:04:47;;;;;;;11.93;7.50;;;;;;;10.35;83.28;101447.59;5264755;28;20116;-82
2022/09/23 07:07:18;;;;;;;9.30;6.50;;;;;;;10.30;82.69;101438.00;5264852;28;20116;-79
2022/09/23 07:09:50;;;;;;;11.17;6.87;;;;;;;10.46;82.23;101451.91;5266396;28;20116;-81
2022/09/23 07:12:21;;;;;;;12.83;6.63;;;;;;;10.48;81.40;101450.16;5264984;28;20044;-80
2022/09/23 07:14:53;;;;;;;12.43;7.60;;;;;;;10.60;81.10;101446.69;5264818;28;20033;-79
2022/09/23 07:17:25;;;;;;;14.50;7.20;;;;;;;10.67;82.78;101451.00;5265554;28;20041;-80
2022/09/23 07:19:57;;;;;;;10.40;7.38;;;;;;;10.75;81.85;101441.41;5266096;28;20063;-80
2022/09/23 07:22:28;;;;;;;15.50;7.13;;;;;;;10.86;81.17;101444.00;5266224;28;20041;-81
2022/09/23 07:24:59;;;;;;;14.77;6.80;;;;;;;10.97;81.85;101444.81;5266530;28;20033;-77
2022/09/23 07:27:32;;;;;;;10.67;6.90;;;;;;;11.12;80.36;101438.66;5266491;28;20468;-82
2022/09/23 07:30:04;;;;;;;12.38;7.10;;;;;;;11.24;80.70;101451.66;5264673;28;20037;-82
2022/09/23 07:32:35;;;;;;;11.17;7.13;;;;;;;11.33;79.13;101442.91;5247070;28;20033;-81
2022/09/23 07:35:08;;;;;;;10.67;6.83;;;;;;;11.43;79.90;101446.34;5264058;28;20500;-82
2022/09/23 07:37:40;;;;;;;12.32;6.80;;;;;;;11.41;79.57;101453.31;5264724;28;20048;-81
2022/09/23 07:40:11;;;;;;;11.13;7.20;;;;;;;11.52;78.50;101456.72;5265086;28;20384;-81
2022/09/23 07:42:43;;;;;;;11.13;7.23;;;;;;;11.65;78.52;101449.69;5264901;28;20431;-81
2022/09/23 07:45:14;;;;;;;14.20;7.27;;;;;;;11.70;77.34;101447.91;5265321;28;20068;-82
2022/09/23 07:47:45;;;;;;;11.60;7.77;;;;;;;11.87;76.51;101445.19;5264801;28;20037;-81
2022/09/23 07:50:17;;;;;;;10.93;7.93;;;;;;;11.97;75.56;101441.66;5265067;28;20083;-81
2022/09/23 07:52:51;;;;;;;15.07;7.22;;;;;;;12.12;75.30;101450.25;5264431;28;20031;-81
2022/09/23 07:55:23;;;;;;;12.00;7.05;;;;;;;12.21;76.71;101442.31;5266880;28;20035;-83
2022/09/23 07:57:54;;;;;;;12.03;7.20;;;;;;;12.33;78.15;101444.84;5269315;28;20443;-82
2022/09/23 08:00:25;;;;;;;12.30;7.17;;;;;;;12.40;78.03;101445.66;5265594;28;20116;-81
2022/09/23 08:02:57;;;;;;;11.60;7.57;;;;;;;12.52;75.10;101444.63;5264640;28;20033;-82
2022/09/23 08:05:28;;;;;;;9.97;6.37;;;;;;;12.56;73.68;101447.22;5264842;28;20045;-81
2022/09/23 08:08:00;;;;;;;12.13;7.03;;;;;;;12.59;72.89;101448.94;5264334;28;20094;-82
2022/09/23 08:10:32;;;;;;;11.07;6.63;;;;;;;12.65;73.66;101458.47;5264523;28;20037;-82
2022/09/23 08:13:03;;;;;;;13.88;6.85;;;;;;;12.68;73.24;101454.06;5264606;28;20044;-81
2022/09/23 08:15:35;;;;;;;9.93;6.17;;;;;;;12.75;71.17;101455.75;5265105;28;20115;-81
2022/09/23 08:18:06;;;;;;;11.43;6.73;;;;;;;12.86;72.49;101457.34;5265015;28;20025;-82
2022/09/23 08:20:43;;;;;;;9.57;6.03;;;;;;;12.91;71.98;101459.03;5277373;28;20051;-81
2022/09/23 08:23:15;;;;;;;13.15;6.18;;;;;;;12.93;71.61;101453.78;5272552;28;20039;-81
2022/09/23 08:25:47;;;;;;;10.57;5.88;;;;;;;13.05;70.92;101458.00;5264866;28;20476;-82
2022/09/23 08:28:18;;;;;;;10.00;6.50;;;;;;;13.12;70.57;101460.53;5263256;28;20033;-82
2022/09/23 08:30:50;;;;;;;14.83;6.40;;;;;;;13.26;72.02;101462.09;5263100;28;20033;-82
2022/09/23 08:33:22;;;;;;;13.27;6.17;;;;;;;13.41;70.94;101464.56;5264474;28;20464;-82
2022/09/23 08:36:01;;;;;;;14.40;5.35;;;;;;;13.51;69.27;101449.59;5263955;28;20059;-81
2022/09/23 08:38:32;;;;;;;7.90;5.95;;;;;;;13.59;69.16;101452.94;5264184;28;20029;-82
2022/09/23 08:41:28;;;;;;;9.93;5.77;;;;;;;13.72;70.28;101455.38;5263289;28;20054;-82
2022/09/23 08:44:10;;;;;;;9.10;5.65;;;;;;;13.83;68.59;101458.72;5264006;28;20025;-82
2022/09/23 08:46:51;;;;;;;9.45;6.55;;;;;;;13.92;68.96;101453.31;5264717;28;20032;-81
2022/09/23 08:49:38;;;;;;;10.25;5.90;;;;;;;14.08;69.80;101455.69;5263924;28;20025;-80
2022/09/23 08:52:28;;;;;;;11.95;6.22;;;;;;;14.43;70.54;101457.69;5264091;28;20064;-82
2022/09/23 08:55:01;;;;;;;10.63;5.30;;;;;;;14.64;69.17;101455.63;5263679;28;20025;-82
2022/09/23 08:57:41;;;;;;;12.75;6.97;;;;;;;14.81;66.51;101455.28;5264127;28;20108;-81
2022/09/23 09:00:19;;;;;;;10.77;6.05;;;;;;;14.79;65.95;101459.69;5263982;28;20020;-82
2022/09/23 09:02:52;;;;;;;11.50;6.57;;;;;;;15.03;67.63;101453.94;5263499;28;20037;-80
2022/09/23 09:05:27;;;;;;;10.00;6.38;;;;;;;15.24;67.72;101447.38;5263593;28;20021;-82
2022/09/23 09:07:59;;;;;;;11.27;6.57;;;;;;;15.57;64.85;101452.78;5264128;28;20037;-83
2022/09/23 09:10:40;;;;;;;9.32;5.70;;;;;;;15.82;61.09;101442.56;5263505;28;20082;-81
2022/09/23 09:13:29;;;;;;;12.32;5.40;;;;;;;15.99;62.35;101444.81;5263163;28;20452;-82
2022/09/23 09:16:25;;;;;;;7.47;4.95;;;;;;;16.11;62.86;101446.25;5268243;28;20025;-82
2022/09/23 09:19:00;;;;;;;11.98;5.40;;;;;;;15.99;58.78;101436.91;5282271;28;20036;-79
2022/09/23 09:21:37;;;;;;;10.80;5.63;;;;;;;16.21;59.03;101436.34;5263137;28;20037;-81
2022/09/23 09:24:18;;;;;;;8.57;4.93;;;;;;;16.47;59.01;101437.44;5263948;28;20039;-82
2022/09/23 09:26:49;;;;;;;7.47;4.32;;;;;;;16.67;56.17;101444.81;5263244;28;20052;-81
2022/09/23 09:29:36;;;;;;;10.27;5.40;;;;;;;16.57;56.89;101433.66;5262592;28;20033;-80
2022/09/23 09:32:45;;;;;;;8.23;4.40;;;;;;;16.61;61.06;101434.44;5263217;28;20432;-82
2022/09/23 09:35:33;;;;;;;10.60;4.70;;;;;;;16.72;57.27;101440.28;5262717;28;20024;-82
2022/09/23 09:38:05;;;;;;;11.50;4.75;;;;;;;17.01;54.80;101436.84;5262857;28;20031;-81
2022/09/23 09:40:46;;;;;;;13.37;4.30;;;;;;;17.16;54.52;101421.47;5263029;28;20476;-81
2022/09/23 09:43:22;;;;;;;9.73;4.20;;;;;;;17.55;53.66;101426.41;5262664;28;20044;-82
2022/09/23 09:46:12;;;;;;;7.60;3.83;;;;;;;17.79;54.77;101427.41;5263075;28;20033;-82
2022/09/23 09:48:55;;;;;;;5.13;3.75;;;;;;;17.93;52.53;101429.63;5262792;28;20056;-81
2022/09/23 09:51:28;;;;;;;7.78;4.00;;;;;;;18.34;53.41;101424.72;5262531;28;20390;-82
2022/09/23 09:54:17;;;;;;;7.57;3.80;;;;;;;18.95;54.60;101424.31;5262539;28;20029;-81
2022/09/23 09:56:49;;;;;;;6.90;3.85;;;;;;;19.24;48.47;101428.47;5262866;28;20024;-81
2022/09/23 09:59:27;;;;;;;6.93;4.35;;;;;;;18.71;48.37;101426.06;5262559;28;20025;-82
2022/09/23 10:02:12;;;;;;;10.55;4.43;;;;;;;18.83;50.89;101420.31;5262500;28;20070;-82
2022/09/23 10:04:44;;;;;;;6.57;3.60;;;;;;;18.77;49.47;101424.03;5262209;28;20108;-82
2022/09/23 10:07:15;;;;;;;9.30;3.90;;;;;;;18.74;48.72;101424.16;5262490;28;20426;-82
2022/09/23 10:09:49;;;;;;;7.60;3.70;;;;;;;18.93;56.99;101424.38;5262828;28;20040;-80
2022/09/23 10:12:23;;;;;;;7.88;4.00;;;;;;;19.07;55.67;101415.91;5260843;28;20124;-81
2022/09/23 10:14:56;;;;;;;12.10;4.28;;;;;;;19.16;49.87;101416.47;5262462;28;20033;-82
2022/09/23 10:17:35;;;;;;;12.57;4.35;;;;;;;19.11;56.60;101416.63;5262721;28;20364;-82
2022/09/23 10:20:08;;;;;;;9.68;4.72;;;;;;;19.33;50.06;101416.66;5261370;28;20045;-82
2022/09/23 10:22:41;;;;;;;8.63;3.97;;;;;;;19.52;50.26;101406.22;5262298;28;20040;-82
2022/09/23 10:25:22;;;;;;;6.93;4.63;;;;;;;19.40;46.34;101414.63;5261949;28;20121;-81
2022/09/23 10:27:54;;;;;;;8.68;4.90;;;;;;;19.21;47.04;101407.44;5262317;28;20037;-82
2022/09/23 10:30:26;;;;;;;8.37;4.83;;;;;;;19.21;48.67;101410.09;5262130;28;20135;-83
2022/09/23 10:32:58;;;;;;;5.68;3.88;;;;;;;19.10;49.54;101409.66;5260789;28;20149;-82
2022/09/23 10:35:33;;;;;;;7.47;4.37;;;;;;;18.99;48.57;101409.19;5262150;28;20048;-82
2022/09/23 10:38:07;;;;;;;7.68;4.70;;;;;;;18.63;51.79;101410.47;5262391;28;20021;-81
2022/09/23 10:46:37;;;;;;;6.80;3.95;;;;;;;18.57;48.13;101410.69;5262313;28;20123;-81
2022/09/23 10:49:14;;;;;;;8.43;4.50;;;;;;;18.48;51.28;101406.63;5262201;28;20384;-82
2022/09/23 10:52:00;;;;;;;5.30;3.85;;;;;;;18.36;49.23;101418.47;5261986;28;20039;-83
2022/09/23 10:54:37;;;;;;;6.97;4.18;;;;;;;18.23;48.47;101412.75;5262200;28;20036;-82
2022/09/23 10:57:41;;;;;;;9.38;4.72;;;;;;;17.96;48.98;101403.16;5263164;28;20119;-79
2022/09/23 11:00:36;;;;;;;6.78;4.50;;;;;;;18.26;50.39;101408.28;5263276;28;20033;-82
2022/09/23 11:03:32;;;;;;;11.02;4.22;;;;;;;18.44;50.58;101402.38;5263201;28;20033;-81
2022/09/23 11:06:28;;;;;;;6.43;4.35;;;;;;;18.54;51.61;101398.47;5261471;28;20025;-83
2022/09/23 11:09:18;;;;;;;8.25;4.25;;;;;;;18.70;52.06;101406.69;5275053;28;20032;-82
2022/09/23 11:12:20;;;;;;;11.38;4.32;;;;;;;18.92;51.47;101395.38;5268129;28;20111;-82
2022/09/23 11:15:10;;;;;;;11.98;3.80;;;;;;;19.07;50.43;101400.03;5252307;28;20040;-83
2022/09/23 11:17:50;;;;;;;8.95;4.35;;;;;;;19.03;49.06;101395.81;5261631;28;20036;-83
2022/09/23 11:20:27;;;;;;;8.70;4.05;;;;;;;19.03;47.87;101389.66;5262166;28;20032;-83
2022/09/23 11:23:36;;;;;;;11.48;4.32;;;;;;;19.08;48.17;101393.00;5262919;28;20036;-81
2022/09/23 11:26:58;;;;;;;7.20;4.20;;;;;;;19.15;49.02;101391.81;5266525;28;20025;-83
2022/09/23 11:29:58;;;;;;;9.10;3.50;;;;;;;19.15;48.91;101383.91;5265299;28;20041;-83
2022/09/23 11:32:44;;;;;;;7.20;3.63;;;;;;;19.20;49.59;101387.22;5265580;28;20460;-83
2022/09/23 11:35:23;;;;;;;9.82;3.50;;;;;;;19.13;48.22;101383.97;5265197;28;20064;-83
2022/09/23 11:38:00;;;;;;;11.93;3.90;;;;;;;19.18;48.20;101383.78;5265846;28;20098;-83
2022/09/23 11:40:35;;;;;;;12.82;4.28;;;;;;;19.35;46.52;101377.81;5265795;28;20372;-83
2022/09/23 11:43:28;;;;;;;6.18;3.65;;;;;;;19.37;49.66;101385.69;5265017;28;20037;-83
2022/09/23 11:46:22;;;;;;;10.20;4.10;;;;;;;19.48;49.43;101371.13;5266360;28;20068;-83
2022/09/23 11:49:15;;;;;;;6.40;3.60;;;;;;;19.68;47.67;101370.28;5266097;28;20029;-83
2022/09/23 11:52:00;;;;;;;6.60;3.58;;;;;;;19.99;48.20;101369.03;5265518;28;20041;-82
2022/09/23 11:54:44;;;;;;;8.52;3.88;;;;;;;20.23;45.62;101369.75;5265669;28;20456;-84
2022/09/23 11:57:26;;;;;;;7.78;4.07;;;;;;;20.79;45.08;101364.63;5265851;28;20112;-83
2022/09/23 12:00:06;;;;;;;14.17;3.77;;;;;;;21.37;44.05;101361.00;5267729;28;20545;-83
2022/09/23 12:02:55;;;;;;;8.30;3.83;;;;;;;21.76;43.94;101362.63;5269493;28;20029;-82
2022/09/23 12:05:39;;;;;;;7.60;3.05;;;;;;;21.51;44.97;101360.38;5281999;28;20021;-80
2022/09/23 12:08:25;;;;;;;7.60;3.40;;;;;;;20.90;43.99;101358.84;5269373;28;20442;-82
2022/09/23 12:11:34;;;;;;;8.65;3.40;;;;;;;20.54;45.00;101359.56;5265464;28;20139;-83
2022/09/23 12:14:32;;;;;;;7.78;3.58;;;;;;;20.12;45.54;101361.41;5265472;28;20049;-80
2022/09/23 12:17:22;;;;;;;5.80;2.97;;;;;;;19.39;46.65;101358.28;5266311;28;20036;-80
2022/09/23 12:20:12;;;;;;;5.30;2.97;;;;;;;19.01;46.67;101363.28;5264488;28;20032;-82
2022/09/23 12:23:02;;;;;;;8.13;3.35;;;;;;;18.86;48.12;101364.75;5265116;28;20112;-83